createdAt,value
2019-06-01T00:01:20.647Z,6.60
2019-06-01T00:03:51.686Z,6.37
2019-06-01T00:06:21.314Z,7.63
2019-06-01T00:08:51.231Z,5.97
2019-06-01T00:11:22.093Z,5.97
2019-06-01T00:13:53.179Z,8.23
2019-06-01T00:16:24.180Z,5.83
2019-06-01T00:18:55.265Z,6.50
2019-06-01T00:21:26.344Z,6.07
2019-06-01T00:23:56.207Z,6.50
2019-06-01T00:26:26.178Z,5.30
2019-06-01T00:28:56.010Z,4.70
2019-06-01T00:31:27.257Z,4.87
2019-06-01T00:33:57.695Z,6.17
2019-06-01T00:36:27.426Z,6.97
2019-06-01T00:38:58.560Z,5.90
2019-06-01T00:41:28.217Z,6.43
2019-06-01T00:43:58.256Z,5.27
2019-06-01T00:46:29.102Z,5.07
2019-06-01T00:48:58.758Z,5.80
2019-06-01T00:51:28.357Z,5.17
2019-06-01T00:53:58.366Z,6.92
2019-06-01T00:56:28.167Z,6.30
2019-06-01T00:58:58.587Z,5.40
2019-06-01T01:01:28.159Z,8.07
2019-06-01T01:03:59.341Z,5.70
2019-06-01T01:06:30.350Z,5.53
2019-06-01T01:09:00.164Z,5.63
2019-06-01T01:11:30.144Z,5.77
2019-06-01T01:14:01.244Z,5.87
2019-06-01T01:16:32.318Z,5.57
2019-06-01T01:19:03.407Z,6.10
2019-06-01T01:21:33.470Z,7.67
2019-06-01T01:24:03.172Z,5.33
2019-06-01T01:26:34.169Z,5.57
2019-06-01T01:29:05.264Z,7.90
2019-06-01T01:31:36.353Z,5.13
2019-06-01T01:34:06.186Z,5.37
2019-06-01T01:36:35.862Z,5.67
2019-06-01T01:39:07.469Z,5.73
2019-06-01T01:41:37.274Z,5.73
2019-06-01T01:44:08.209Z,5.70
2019-06-01T01:46:39.256Z,5.80
2019-06-01T01:49:08.719Z,6.30
2019-06-01T01:51:38.317Z,6.70
2019-06-01T01:54:07.777Z,5.10
2019-06-01T01:56:37.292Z,5.23
2019-06-01T01:59:08.237Z,5.07
2019-06-01T02:01:37.838Z,6.47
2019-06-01T02:04:07.295Z,6.00
2019-06-01T02:06:36.827Z,5.90
2019-06-01T02:09:08.017Z,4.83
2019-06-01T02:11:37.737Z,4.77
2019-06-01T02:14:07.363Z,5.73
2019-06-01T02:16:36.913Z,5.10
2019-06-01T02:19:08.257Z,5.17
2019-06-01T02:21:39.351Z,5.63
2019-06-01T02:24:10.260Z,5.13
2019-06-01T02:26:40.821Z,5.47
2019-06-01T02:29:11.417Z,4.93
2019-06-01T02:31:42.953Z,6.73
2019-06-01T02:34:13.600Z,5.00
2019-06-01T02:36:44.689Z,5.40
2019-06-01T02:39:15.445Z,5.07
2019-06-01T02:41:45.330Z,5.53
2019-06-01T02:44:14.779Z,4.90
2019-06-01T02:46:45.573Z,4.93
2019-06-01T02:49:15.368Z,4.53
2019-06-01T02:51:44.897Z,5.23
2019-06-01T02:54:15.980Z,5.17
2019-06-01T02:56:45.874Z,5.22
2019-06-01T02:59:15.576Z,7.73
2019-06-01T03:01:56.618Z,5.27
2019-06-01T03:04:17.376Z,6.10
2019-06-01T03:06:48.862Z,5.30
2019-06-01T03:09:19.860Z,5.73
2019-06-01T03:11:49.994Z,9.37
2019-06-01T03:14:21.353Z,4.80
2019-06-01T03:16:51.940Z,11.20
2019-06-01T03:19:23.675Z,8.13
2019-06-01T03:21:55.789Z,5.70
2019-06-01T03:24:27.300Z,4.97
2019-06-01T03:26:56.853Z,5.77
2019-06-01T03:29:30.619Z,4.77
2019-06-01T03:32:19.037Z,5.20
2019-06-01T03:34:31.734Z,4.17
2019-06-01T03:37:02.932Z,5.90
2019-06-01T03:39:32.583Z,4.10
2019-06-01T03:42:03.459Z,4.37
2019-06-01T03:44:33.343Z,4.03
2019-06-01T03:47:03.801Z,7.07
2019-06-01T03:49:34.407Z,5.90
2019-06-01T03:52:04.864Z,4.77
2019-06-01T03:54:34.873Z,3.87
2019-06-01T03:57:05.421Z,4.57
2019-06-01T03:59:35.798Z,5.07
2019-06-01T04:02:07.354Z,4.47
2019-06-01T04:04:36.878Z,5.10
2019-06-01T04:07:06.485Z,5.37
2019-06-01T04:09:36.064Z,6.67
2019-06-01T04:12:07.689Z,4.33
2019-06-01T04:14:37.480Z,4.70
2019-06-01T04:17:08.162Z,6.03
2019-06-01T04:19:40.307Z,4.43
2019-06-01T04:22:12.306Z,5.07
2019-06-01T04:24:42.639Z,5.03
2019-06-01T04:27:12.880Z,6.10
2019-06-01T04:29:43.622Z,4.65
2019-06-01T04:32:14.047Z,4.33
2019-06-01T04:34:45.600Z,4.37
2019-06-01T04:37:15.860Z,4.43
2019-06-01T04:39:46.634Z,4.63
2019-06-01T04:42:16.851Z,4.77
2019-06-01T04:44:47.508Z,3.83
2019-06-01T04:47:17.510Z,3.90
2019-06-01T04:49:48.032Z,3.63
2019-06-01T04:52:17.685Z,3.73
2019-06-01T04:54:47.819Z,3.07
2019-06-01T04:57:17.575Z,2.83
2019-06-01T04:59:48.679Z,3.03
2019-06-01T05:02:18.943Z,2.40
2019-06-01T05:04:49.640Z,2.70
2019-06-01T05:07:19.512Z,2.33
2019-06-01T05:09:49.303Z,2.75
2019-06-01T05:12:18.943Z,2.30
2019-06-01T05:14:48.660Z,2.53
2019-06-01T05:17:20.019Z,2.40
2019-06-01T05:19:52.714Z,2.37
2019-06-01T05:22:22.858Z,2.63
2019-06-01T05:24:53.746Z,2.27
2019-06-01T05:27:24.023Z,2.60
2019-06-01T05:29:55.159Z,1.87
2019-06-01T05:32:24.809Z,1.87
2019-06-01T05:34:55.793Z,2.17
2019-06-01T05:37:27.220Z,4.20
2019-06-01T05:39:58.625Z,3.98
2019-06-01T05:42:28.499Z,1.43
2019-06-01T05:44:59.086Z,1.67
2019-06-01T05:47:29.216Z,1.60
2019-06-01T05:49:58.721Z,4.30
2019-06-01T05:52:28.614Z,1.63
2019-06-01T05:54:59.015Z,4.27
2019-06-01T05:57:29.714Z,2.37
2019-06-01T05:59:59.286Z,1.77
2019-06-01T06:02:28.902Z,1.77
2019-06-01T06:05:00.045Z,4.17
2019-06-01T06:07:29.754Z,2.10
2019-06-01T06:09:59.839Z,1.83
2019-06-01T06:12:29.667Z,1.97
2019-06-01T06:14:59.121Z,1.70
2019-06-01T06:17:29.663Z,1.30
2019-06-01T06:19:59.788Z,3.33
2019-06-01T06:22:29.642Z,1.73
2019-06-01T06:24:59.855Z,1.47
2019-06-01T06:27:29.667Z,3.70
2019-06-01T06:29:59.683Z,3.67
2019-06-01T06:32:29.668Z,3.03
2019-06-01T06:35:00.109Z,4.10
2019-06-01T06:37:29.767Z,1.83
2019-06-01T06:39:59.703Z,1.85
2019-06-01T06:42:30.251Z,5.43
2019-06-01T06:45:03.522Z,3.33
2019-06-01T06:47:32.060Z,3.50
2019-06-01T06:50:02.059Z,1.67
2019-06-01T06:52:31.868Z,2.33
2019-06-01T06:55:01.717Z,12.50
2019-06-01T06:57:31.282Z,10.80
2019-06-01T07:00:05.768Z,8.70
2019-06-01T07:02:35.849Z,3.97
2019-06-01T07:05:07.295Z,4.10
2019-06-01T07:07:37.746Z,4.07
2019-06-01T07:10:08.778Z,4.73
2019-06-01T07:12:39.322Z,3.00
2019-06-01T07:15:08.784Z,2.43
2019-06-01T07:17:38.335Z,7.73
2019-06-01T07:20:09.116Z,5.70
2019-06-01T07:22:39.771Z,4.87
2019-06-01T07:25:09.292Z,2.70
2019-06-01T07:27:38.910Z,3.17
2019-06-01T07:30:08.894Z,2.47
2019-06-01T07:32:39.087Z,4.07
2019-06-01T07:35:09.240Z,2.60
2019-06-01T07:37:39.719Z,2.67
2019-06-01T07:40:13.414Z,1.50
2019-06-01T07:42:42.827Z,3.67
2019-06-01T07:45:13.786Z,3.03
2019-06-01T07:47:44.463Z,1.87
2019-06-01T07:50:13.944Z,3.83
2019-06-01T07:52:43.928Z,3.73
2019-06-01T07:55:14.800Z,6.47
2019-06-01T07:57:45.023Z,2.40
2019-06-01T08:00:15.802Z,3.57
2019-06-01T08:02:46.795Z,1.70
2019-06-01T08:05:16.442Z,3.03
2019-06-01T08:07:47.256Z,2.80
2019-06-01T08:10:17.186Z,1.83
2019-06-01T08:12:48.193Z,1.83
2019-06-01T08:15:18.089Z,3.03
2019-06-01T08:17:49.336Z,5.97
2019-06-01T08:20:18.902Z,6.07
2019-06-01T08:22:48.335Z,9.20
2019-06-01T08:25:18.012Z,1.70
2019-06-01T08:27:47.913Z,2.77
2019-06-01T08:30:17.789Z,3.67
2019-06-01T08:32:48.070Z,8.05
2019-06-01T08:35:17.848Z,1.67
2019-06-01T08:37:47.950Z,4.33
2019-06-01T08:40:17.926Z,3.30
2019-06-01T08:42:47.916Z,3.12
2019-06-01T08:45:18.002Z,2.00
2019-06-01T08:47:47.977Z,2.63
2019-06-01T08:50:18.348Z,2.70
2019-06-01T08:52:48.012Z,6.43
2019-06-01T08:55:17.993Z,2.07
2019-06-01T08:57:48.804Z,2.83
2019-06-01T09:00:19.811Z,4.30
2019-06-01T09:02:49.923Z,2.95
2019-06-01T09:05:24.340Z,2.67
2019-06-01T09:07:52.115Z,5.90
2019-06-01T09:10:21.853Z,3.80
2019-06-01T09:12:52.459Z,3.33
2019-06-01T09:15:22.895Z,2.67
2019-06-01T09:17:53.612Z,1.70
2019-06-01T09:20:25.396Z,2.60
2019-06-01T09:22:56.168Z,2.30
2019-06-01T09:25:27.530Z,2.23
2019-06-01T09:27:58.223Z,2.57
2019-06-01T09:30:29.880Z,1.50
2019-06-01T09:33:00.051Z,2.85
2019-06-01T09:35:47.750Z,1.40
2019-06-01T09:38:02.088Z,1.25
2019-06-01T09:40:33.421Z,2.00
2019-06-01T09:43:04.406Z,3.13
2019-06-01T09:45:36.272Z,2.20
2019-06-01T09:48:07.999Z,1.93
2019-06-01T09:50:38.707Z,1.20
2019-06-01T09:53:08.547Z,1.33
2019-06-01T09:55:40.003Z,1.10
2019-06-01T09:58:10.423Z,2.17
2019-06-01T10:00:43.470Z,1.20
2019-06-01T10:03:12.377Z,2.60
2019-06-01T10:05:58.427Z,1.10
2019-06-01T10:08:15.251Z,2.03
2019-06-01T10:10:47.095Z,1.77
2019-06-01T10:13:16.523Z,1.20
2019-06-01T10:15:47.063Z,1.57
2019-06-01T10:18:17.208Z,2.17
2019-06-01T10:20:48.212Z,2.57
2019-06-01T10:23:17.711Z,2.10
2019-06-01T10:25:47.651Z,2.37
2019-06-01T10:28:17.993Z,1.80
2019-06-01T10:30:48.358Z,4.00
2019-06-01T10:33:17.978Z,2.10
2019-06-01T10:35:48.366Z,1.60
2019-06-01T10:38:19.106Z,1.20
2019-06-01T10:40:49.674Z,0.93
2019-06-01T10:43:19.214Z,1.03
2019-06-01T10:45:48.576Z,2.73
2019-06-01T10:48:18.118Z,2.20
2019-06-01T10:50:47.578Z,0.70
2019-06-01T10:53:18.202Z,0.97
2019-06-01T10:55:48.359Z,1.40
2019-06-01T10:58:18.781Z,1.03
2019-06-01T11:00:51.103Z,1.10
2019-06-01T11:03:19.551Z,0.77
2019-06-01T11:05:50.179Z,1.20
2019-06-01T11:08:21.091Z,0.80
2019-06-01T11:10:50.591Z,5.90
2019-06-01T11:13:22.374Z,2.37
2019-06-01T11:15:52.820Z,1.07
2019-06-01T11:18:23.644Z,0.93
2019-06-01T11:20:54.313Z,1.07
2019-06-01T11:23:25.330Z,3.30
2019-06-01T11:25:56.254Z,6.30
2019-06-01T11:28:27.181Z,6.73
2019-06-01T11:30:58.290Z,8.20
2019-06-01T11:33:28.551Z,1.40
2019-06-01T11:35:59.307Z,2.07
2019-06-01T11:38:30.507Z,2.03
2019-06-01T11:41:01.317Z,1.23
2019-06-01T11:43:31.223Z,1.53
2019-06-01T11:46:00.830Z,1.47
2019-06-01T11:48:30.372Z,1.73
2019-06-01T11:50:59.943Z,1.27
2019-06-01T11:53:30.202Z,3.20
2019-06-01T11:56:01.204Z,1.10
2019-06-01T11:58:31.906Z,1.07
2019-06-01T12:01:02.179Z,5.23
2019-06-01T12:03:32.397Z,2.30
2019-06-01T12:06:01.871Z,0.98
2019-06-01T12:08:34.268Z,1.03
2019-06-01T12:11:05.539Z,2.27
2019-06-01T12:13:37.953Z,4.12
2019-06-01T12:16:09.340Z,7.50
2019-06-01T12:18:42.539Z,2.80
2019-06-01T12:21:14.181Z,2.07
2019-06-01T12:23:45.678Z,2.27
2019-06-01T12:26:19.953Z,0.93
2019-06-01T12:28:49.424Z,1.00
2019-06-01T12:31:20.313Z,1.57
2019-06-01T12:33:50.440Z,2.20
2019-06-01T12:36:21.834Z,1.07
2019-06-01T12:38:54.418Z,0.97
2019-06-01T12:41:31.777Z,2.27
2019-06-01T12:44:09.820Z,2.93
2019-06-01T12:46:39.922Z,4.92
2019-06-01T12:49:09.495Z,4.47
2019-06-01T12:51:40.570Z,1.50
2019-06-01T12:54:11.798Z,1.27
2019-06-01T12:56:42.864Z,3.22
2019-06-01T12:59:13.838Z,1.40
2019-06-01T13:01:45.134Z,1.90
2019-06-01T13:04:17.112Z,1.25
2019-06-01T13:06:52.046Z,1.87
2019-06-01T13:09:21.596Z,1.55
2019-06-01T13:11:51.495Z,1.45
2019-06-01T13:14:22.627Z,2.30
2019-06-01T13:17:06.020Z,2.08
2019-06-01T13:19:25.653Z,0.60
2019-06-01T13:21:56.739Z,20.40
2019-06-01T13:24:28.071Z,12.27
2019-06-01T13:26:57.863Z,6.37
2019-06-01T13:29:29.515Z,2.40
2019-06-01T13:31:59.611Z,1.70
2019-06-01T13:34:33.742Z,2.17
2019-06-01T13:37:00.962Z,2.00
2019-06-01T13:39:30.880Z,0.70
2019-06-01T13:42:00.584Z,1.07
2019-06-01T13:44:30.608Z,2.08
2019-06-01T13:47:00.553Z,2.87
2019-06-01T13:49:31.918Z,1.13
2019-06-01T13:52:03.672Z,1.77
2019-06-01T13:54:35.516Z,2.80
2019-06-01T13:57:06.629Z,3.17
2019-06-01T13:59:38.509Z,3.12
2019-06-01T14:02:08.907Z,2.10
2019-06-01T14:04:39.041Z,4.10
2019-06-01T14:07:10.774Z,5.83
2019-06-01T14:09:40.553Z,3.13
2019-06-01T14:12:11.894Z,1.37
2019-06-01T14:14:42.999Z,3.40
2019-06-01T14:17:14.507Z,2.10
2019-06-01T14:19:48.079Z,2.83
2019-06-01T14:22:18.698Z,5.35
2019-06-01T14:25:06.447Z,6.30
2019-06-01T14:27:21.145Z,5.00
2019-06-01T14:29:52.760Z,2.80
2019-06-01T14:32:24.436Z,1.87
2019-06-01T14:34:56.992Z,1.47
2019-06-01T14:37:28.561Z,1.30
2019-06-01T14:39:59.926Z,1.07
2019-06-01T14:42:30.508Z,0.97
2019-06-01T14:45:00.232Z,1.30
2019-06-01T14:47:31.656Z,1.40
2019-06-01T14:50:01.436Z,1.23
2019-06-01T14:52:35.132Z,1.95
2019-06-01T14:55:06.287Z,1.37
2019-06-01T14:57:37.635Z,2.60
2019-06-01T15:00:10.278Z,4.90
2019-06-01T15:02:40.880Z,5.00
2019-06-01T15:05:10.601Z,5.40
2019-06-01T15:07:40.510Z,4.33
2019-06-01T15:10:11.132Z,2.97
2019-06-01T15:12:42.757Z,1.60
2019-06-01T15:15:14.958Z,1.83
2019-06-01T15:17:46.470Z,8.13
2019-06-01T15:20:18.459Z,6.83
2019-06-01T15:22:50.010Z,4.30
2019-06-01T15:25:21.676Z,3.10
2019-06-01T15:27:52.857Z,1.97
2019-06-01T15:30:27.042Z,2.10
2019-06-01T15:32:59.649Z,1.70
2019-06-01T15:35:52.073Z,1.55
2019-06-01T15:38:22.844Z,2.85
2019-06-01T15:40:56.016Z,1.35
2019-06-01T15:43:28.176Z,1.17
2019-06-01T15:45:59.909Z,1.83
2019-06-01T15:48:31.956Z,1.27
2019-06-01T15:51:07.157Z,1.30
2019-06-01T15:53:36.863Z,2.10
2019-06-01T15:56:08.537Z,1.22
2019-06-01T15:58:52.232Z,1.40
2019-06-01T16:01:13.019Z,1.90
2019-06-01T16:03:44.419Z,1.22
2019-06-01T16:06:17.062Z,1.67
2019-06-01T16:08:47.198Z,1.20
2019-06-01T16:11:18.686Z,1.50
2019-06-01T16:13:50.079Z,1.73
2019-06-01T16:16:20.319Z,2.50
2019-06-01T16:18:50.529Z,1.80
2019-06-01T16:21:20.034Z,2.53
2019-06-01T16:23:50.694Z,1.70
2019-06-01T16:26:20.773Z,1.60
2019-06-01T16:28:50.199Z,2.13
2019-06-01T16:31:19.923Z,2.33
2019-06-01T16:33:49.582Z,2.05
2019-06-01T16:36:19.497Z,1.33
2019-06-01T16:38:49.057Z,2.00
2019-06-01T16:41:18.804Z,1.73
2019-06-01T16:43:48.259Z,1.30
2019-06-01T16:46:17.944Z,1.93
2019-06-01T16:48:47.645Z,1.20
2019-06-01T16:51:17.035Z,2.00
2019-06-01T16:53:52.483Z,1.13
2019-06-01T16:56:22.922Z,1.42
2019-06-01T16:58:52.643Z,1.30
2019-06-01T17:01:22.036Z,1.30
2019-06-01T17:03:51.755Z,1.10
2019-06-01T17:06:21.139Z,1.30
2019-06-01T17:08:51.267Z,1.67
2019-06-01T17:11:21.067Z,4.87
2019-06-01T17:13:50.798Z,4.75
2019-06-01T17:16:20.160Z,4.20
2019-06-01T17:18:49.784Z,2.77
2019-06-01T17:21:19.151Z,4.47
2019-06-01T17:23:49.034Z,12.98
2019-06-01T17:26:18.827Z,9.53
2019-06-01T17:28:49.058Z,3.63
2019-06-01T17:31:18.905Z,1.82
2019-06-01T17:33:48.814Z,3.00
2019-06-01T17:36:19.114Z,7.67
2019-06-01T17:38:50.868Z,6.12
2019-06-01T17:41:20.712Z,5.37
2019-06-01T17:43:50.177Z,3.47
2019-06-01T17:46:19.824Z,3.10
2019-06-01T17:48:49.740Z,2.47
2019-06-01T17:51:19.131Z,1.60
2019-06-01T17:53:48.925Z,4.40
2019-06-01T17:56:19.040Z,9.05
2019-06-01T17:58:48.888Z,20.65
2019-06-01T18:01:18.431Z,11.43
2019-06-01T18:03:48.200Z,5.93
2019-06-01T18:06:17.799Z,9.30
2019-06-01T18:08:47.312Z,6.70
2019-06-01T18:11:16.947Z,7.17
2019-06-01T18:13:46.883Z,11.53
2019-06-01T18:16:16.431Z,2.85
2019-06-01T18:18:46.052Z,2.60
2019-06-01T18:21:15.491Z,2.95
2019-06-01T18:23:45.231Z,5.83
2019-06-01T18:26:14.946Z,3.30
2019-06-01T18:28:44.995Z,7.30
2019-06-01T18:31:15.012Z,3.58
2019-06-01T18:33:44.921Z,2.60
2019-06-01T18:36:14.617Z,2.57
2019-06-01T18:38:44.286Z,3.50
2019-06-01T18:41:18.350Z,2.07
2019-06-01T18:43:46.992Z,2.37
2019-06-01T18:46:16.256Z,12.57
2019-06-01T18:48:47.766Z,9.70
2019-06-01T18:51:17.239Z,5.77
2019-06-01T18:53:47.170Z,4.40
2019-06-01T18:56:17.127Z,1.83
2019-06-01T18:58:47.293Z,1.93
2019-06-01T19:01:20.762Z,2.03
2019-06-01T19:03:48.696Z,3.53
2019-06-01T19:06:18.274Z,1.83
2019-06-01T19:08:47.811Z,3.60
2019-06-01T19:11:34.752Z,2.70
2019-06-01T19:13:51.586Z,2.47
2019-06-01T19:16:21.036Z,2.67
2019-06-01T19:18:51.038Z,2.10
2019-06-01T19:21:22.896Z,2.20
2019-06-01T19:23:52.857Z,3.20
2019-06-01T19:26:22.820Z,2.30
2019-06-01T19:28:52.386Z,1.97
2019-06-01T19:31:21.910Z,1.60
2019-06-01T19:33:52.111Z,2.00
2019-06-01T19:36:21.563Z,2.97
2019-06-01T19:38:51.277Z,2.40
2019-06-01T19:41:21.204Z,2.90
2019-06-01T19:43:51.239Z,2.27
2019-06-01T19:46:20.890Z,3.43
2019-06-01T19:48:50.312Z,3.07
2019-06-01T19:51:20.124Z,2.90
2019-06-01T19:53:50.137Z,3.73
2019-06-01T19:56:20.550Z,14.63
2019-06-01T19:58:51.194Z,36.83
2019-06-01T20:01:20.637Z,19.17
2019-06-01T20:03:50.449Z,17.13
2019-06-01T20:06:20.021Z,23.93
2019-06-01T20:08:49.597Z,17.60
2019-06-01T20:11:19.447Z,9.13
2019-06-01T20:13:49.409Z,7.47
2019-06-01T20:16:20.237Z,5.00
2019-06-01T20:18:50.127Z,4.63
2019-06-01T20:21:20.649Z,5.30
2019-06-01T20:23:50.419Z,7.23
2019-06-01T20:26:20.095Z,4.43
2019-06-01T20:28:56.337Z,4.33
2019-06-01T20:31:26.238Z,4.10
2019-06-01T20:33:56.523Z,4.35
2019-06-01T20:36:26.683Z,4.10
2019-06-01T20:38:56.367Z,3.90
2019-06-01T20:41:26.094Z,7.07
2019-06-01T20:43:55.936Z,4.40
2019-06-01T20:46:25.443Z,3.43
2019-06-01T20:48:55.379Z,3.55
2019-06-01T20:51:27.651Z,3.33
2019-06-01T20:53:56.312Z,7.90
2019-06-01T20:56:26.161Z,17.63
2019-06-01T20:59:05.797Z,8.20
2019-06-01T21:01:35.496Z,10.03
2019-06-01T21:04:06.179Z,7.80
2019-06-01T21:06:35.723Z,6.47
2019-06-01T21:09:10.807Z,4.50
2019-06-01T21:11:41.147Z,4.47
2019-06-01T21:14:10.524Z,4.20
2019-06-01T21:16:40.194Z,6.97
2019-06-01T21:19:11.443Z,5.83
2019-06-01T21:21:41.381Z,4.23
2019-06-01T21:24:11.057Z,5.23
2019-06-01T21:26:40.710Z,5.27
2019-06-01T21:29:10.451Z,7.47
2019-06-01T21:31:40.300Z,5.90
2019-06-01T21:34:10.054Z,11.17
2019-06-01T21:36:41.810Z,15.87
2019-06-01T21:39:11.317Z,15.73
2019-06-01T21:41:41.239Z,11.83
2019-06-01T21:44:10.718Z,16.37
2019-06-01T21:46:40.279Z,17.97
2019-06-01T21:49:09.735Z,12.40
2019-06-01T21:51:39.451Z,9.90
2019-06-01T21:54:09.167Z,12.03
2019-06-01T21:56:38.687Z,12.30
2019-06-01T21:59:09.574Z,22.87
2019-06-01T22:01:41.216Z,24.57
2019-06-01T22:04:10.566Z,20.87
2019-06-01T22:06:40.241Z,15.70
2019-06-01T22:09:09.680Z,13.90
2019-06-01T22:11:39.304Z,11.77
2019-06-01T22:14:09.839Z,9.17
2019-06-01T22:16:39.509Z,9.57
2019-06-01T22:19:09.170Z,7.77
2019-06-01T22:21:38.737Z,10.27
2019-06-01T22:24:09.249Z,7.00
2019-06-01T22:26:38.773Z,7.70
2019-06-01T22:29:13.123Z,7.80
2019-06-01T22:31:39.508Z,29.13
2019-06-01T22:34:09.261Z,20.13
2019-06-01T22:36:38.741Z,16.40
2019-06-01T22:39:08.698Z,8.10
2019-06-01T22:41:38.290Z,8.37
2019-06-01T22:44:07.922Z,6.87
2019-06-01T22:46:37.456Z,7.67
2019-06-01T22:49:07.241Z,7.47
2019-06-01T22:51:36.698Z,8.70
2019-06-01T22:54:06.268Z,6.67
2019-06-01T22:56:35.736Z,7.73
2019-06-01T22:59:05.243Z,6.80
2019-06-01T23:01:34.698Z,6.60
2019-06-01T23:04:04.254Z,7.50
2019-06-01T23:06:33.726Z,50.37
2019-06-01T23:09:03.464Z,18.93
2019-06-01T23:11:33.242Z,10.77
2019-06-01T23:14:03.044Z,9.30
2019-06-01T23:16:32.490Z,7.07
2019-06-01T23:19:02.149Z,9.77
2019-06-01T23:21:32.019Z,7.10
2019-06-01T23:24:02.582Z,6.93
2019-06-01T23:26:32.512Z,10.00
2019-06-01T23:29:02.318Z,7.17
2019-06-01T23:31:32.613Z,7.73
2019-06-01T23:34:02.500Z,7.63
2019-06-01T23:36:32.854Z,7.60
2019-06-01T23:39:02.381Z,7.20
2019-06-01T23:41:32.919Z,7.90
2019-06-01T23:44:12.007Z,7.13
2019-06-01T23:46:35.589Z,6.70
2019-06-01T23:49:05.318Z,6.80
2019-06-01T23:51:34.843Z,6.70
2019-06-01T23:54:04.351Z,7.93
2019-06-01T23:56:34.742Z,7.73
2019-06-01T23:59:04.389Z,9.67
